»·PEaware :: N171MA KOSH-KOSH

N171MA :: KOSH-KOSH

FLIGHT INFORMATION

Flight Status: Arrived
Operator: Privately registered:
United States
More flights under this callsign
Pilot: Tim M. (868)
Aircraft: CESSNA 152 AEROBAT
(C152)
More flights by this aircraft type
Origin: KOSH Wittman Regl
United States
Destination: KOSH Wittman Regl
United States
More flights between these airports :: More routes between these airports
Route: +
File this flight plan on PilotEdge
Remarks:
Altitude:
(Current/Filed)
0ft
Speed:
(Current/Filed)
0kts
Departed: 13-Jul-20 10:39 AM
Arrived: 13-Jul-20 11:26 AM
Distance/Time
Traveled:
1nm/0:47
Distance/Time
To Go:
Arrived

Flight Plot

Page will automatically refresh every two minutes.

Flight plan parsing failed; only flown route is shown


Map Options




Map Legend


Flown Route
Filed Route
Departure Airport
Arrival Airport
Navaid (VOR, NDB)
Fix

Horizontal Profiles

Position Reports

Time Latitude Longitude Heading Altitude Ground
Speed
13-Jul-20 10:18 37.946011 -121.647390 310 33ft 0kts
13-Jul-20 10:19 37.946011 -121.647390 310 33ft 0kts
13-Jul-20 10:23 33.676156 -117.870972 183 52ft 0kts
13-Jul-20 10:31 43.768550 -88.483921 266 792ft 0kts
13-Jul-20 10:32 43.768550 -88.483921 266 792ft 0kts
13-Jul-20 10:33 43.768550 -88.483921 266 792ft 0kts
13-Jul-20 10:34 43.768550 -88.483921 266 792ft 0kts
13-Jul-20 10:35 43.768550 -88.483923 266 792ft 0kts
13-Jul-20 10:36 43.768518 -88.484426 266 792ft 11kts
13-Jul-20 10:37 43.771048 -88.485410 10 792ft 9kts
13-Jul-20 10:38 43.772318 -88.514810 269 1413ft 114kts
13-Jul-20 10:39 43.779028 -88.560833 290 2760ft 125kts
13-Jul-20 10:40 43.795286 -88.608544 299 3324ft 157kts
13-Jul-20 10:41 43.812165 -88.666503 273 3065ft 174kts
13-Jul-20 10:42 43.808584 -88.734089 261 2818ft 169kts
13-Jul-20 10:43 43.804951 -88.800343 268 2643ft 175kts
13-Jul-20 10:44 43.810881 -88.861957 287 1991ft 129kts
13-Jul-20 10:45 43.829389 -88.869258 42 1735ft 91kts
13-Jul-20 10:46 43.843597 -88.842702 52 1776ft 100kts
13-Jul-20 10:47 43.859001 -88.814912 48 1817ft 99kts
13-Jul-20 10:48 43.864887 -88.804367 48 1729ft 95kts
13-Jul-20 10:49 43.868657 -88.797940 48 1785ft 90kts
13-Jul-20 10:50 43.868657 -88.797940 48 1785ft 90kts
13-Jul-20 10:51 43.868657 -88.797940 48 1785ft 90kts
13-Jul-20 10:52 43.868657 -88.797940 48 1785ft 90kts
13-Jul-20 10:53 43.868657 -88.797940 48 1785ft 90kts
13-Jul-20 10:54 43.868657 -88.797940 48 1785ft 90kts
13-Jul-20 10:55 43.868657 -88.797940 48 1785ft 90kts
13-Jul-20 10:56 43.868657 -88.797940 48 1785ft 90kts
13-Jul-20 10:57 43.869536 -88.796457 46 1790ft 92kts
13-Jul-20 10:58 43.885130 -88.767500 48 1803ft 84kts
13-Jul-20 10:59 43.886296 -88.765632 47 1803ft 87kts
13-Jul-20 11:00 43.886296 -88.765632 47 1803ft 87kts
13-Jul-20 11:01 43.886296 -88.765632 47 1803ft 87kts
13-Jul-20 11:02 43.886296 -88.765632 47 1803ft 87kts
13-Jul-20 11:03 43.886296 -88.765632 47 1803ft 87kts
13-Jul-20 11:04 43.886296 -88.765632 47 1803ft 87kts
13-Jul-20 11:05 43.886296 -88.765632 47 1803ft 87kts
13-Jul-20 11:06 43.888733 -88.762234 39 1801ft 93kts
13-Jul-20 11:07 43.907320 -88.737151 42 1780ft 95kts
13-Jul-20 11:08 43.926879 -88.713477 41 1829ft 90kts
13-Jul-20 11:09 43.946493 -88.689425 49 1764ft 94kts
13-Jul-20 11:10 43.951702 -88.677919 38 1814ft 95kts
13-Jul-20 11:11 43.951702 -88.677919 38 1814ft 95kts
13-Jul-20 11:12 43.951702 -88.677919 38 1814ft 95kts
13-Jul-20 11:13 43.951702 -88.677919 38 1814ft 95kts
13-Jul-20 11:14 43.965175 -88.662387 53 1785ft 96kts
13-Jul-20 11:15 43.978911 -88.631707 52 1748ft 95kts
13-Jul-20 11:16 43.989956 -88.606379 58 1786ft 91kts
13-Jul-20 11:17 43.989956 -88.606379 58 1786ft 91kts
13-Jul-20 11:18 43.989956 -88.606379 58 1786ft 91kts
13-Jul-20 11:19 43.989956 -88.606379 58 1786ft 91kts
13-Jul-20 11:20 43.989956 -88.606379 58 1786ft 91kts
13-Jul-20 11:21 43.989956 -88.606379 58 1786ft 91kts
13-Jul-20 11:22 44.000434 -88.580419 64 1835ft 93kts
13-Jul-20 11:23 44.001743 -88.545661 96 1543ft 87kts
13-Jul-20 11:24 43.991577 -88.558149 267 801ft 69kts
13-Jul-20 11:25 43.992531 -88.566595 278 798ft 18kts
13-Jul-20 11:26 43.992650 -88.568695 193 798ft 0kts

Navigation Log

Ident Type
Flight plan parsing failed, navigation log unavailable